sensor_id;sensor_type;location;lat;lon;timestamp;temperature;humidity
12329;DHT22;6230;52.390;10.256;2023-05-16T00:00:55;15.90;56.70
12329;DHT22;6230;52.390;10.256;2023-05-16T00:03:22;15.90;56.80
12329;DHT22;6230;52.390;10.256;2023-05-16T00:05:48;15.80;56.70
12329;DHT22;6230;52.390;10.256;2023-05-16T00:08:15;15.80;56.70
12329;DHT22;6230;52.390;10.256;2023-05-16T00:10:40;15.80;56.90
12329;DHT22;6230;52.390;10.256;2023-05-16T00:13:06;15.80;57.00
12329;DHT22;6230;52.390;10.256;2023-05-16T00:15:31;15.70;56.90
12329;DHT22;6230;52.390;10.256;2023-05-16T00:17:58;15.70;57.00
12329;DHT22;6230;52.390;10.256;2023-05-16T00:20:25;15.60;57.10
12329;DHT22;6230;52.390;10.256;2023-05-16T00:22:52;15.60;57.20
12329;DHT22;6230;52.390;10.256;2023-05-16T00:25:18;15.50;57.90
12329;DHT22;6230;52.390;10.256;2023-05-16T00:27:44;15.50;57.30
12329;DHT22;6230;52.390;10.256;2023-05-16T00:30:09;15.50;57.40
12329;DHT22;6230;52.390;10.256;2023-05-16T00:32:35;15.50;57.50
12329;DHT22;6230;52.390;10.256;2023-05-16T00:35:01;15.50;57.60
12329;DHT22;6230;52.390;10.256;2023-05-16T00:37:27;15.50;57.60
12329;DHT22;6230;52.390;10.256;2023-05-16T00:39:53;15.50;57.70
12329;DHT22;6230;52.390;10.256;2023-05-16T00:42:19;15.50;57.70
12329;DHT22;6230;52.390;10.256;2023-05-16T00:44:45;15.60;57.80
12329;DHT22;6230;52.390;10.256;2023-05-16T00:47:11;15.60;57.80
12329;DHT22;6230;52.390;10.256;2023-05-16T00:49:36;15.60;57.80
12329;DHT22;6230;52.390;10.256;2023-05-16T00:52:02;15.60;57.80
12329;DHT22;6230;52.390;10.256;2023-05-16T00:54:29;15.60;57.80
12329;DHT22;6230;52.390;10.256;2023-05-16T00:56:55;15.70;57.90
12329;DHT22;6230;52.390;10.256;2023-05-16T00:59:21;15.70;57.80
12329;DHT22;6230;52.390;10.256;2023-05-16T01:01:47;15.70;58.00
12329;DHT22;6230;52.390;10.256;2023-05-16T01:04:14;15.70;58.00
12329;DHT22;6230;52.390;10.256;2023-05-16T01:06:41;15.60;57.90
12329;DHT22;6230;52.390;10.256;2023-05-16T01:09:06;15.60;58.00
12329;DHT22;6230;52.390;10.256;2023-05-16T01:12:01;15.60;58.70
12329;DHT22;6230;52.390;10.256;2023-05-16T01:14:47;15.60;58.40
12329;DHT22;6230;52.390;10.256;2023-05-16T01:17:22;15.60;58.40
12329;DHT22;6230;52.390;10.256;2023-05-16T01:22:55;15.50;58.40
12329;DHT22;6230;52.390;10.256;2023-05-16T01:28:28;15.40;58.70
12329;DHT22;6230;52.390;10.256;2023-05-16T01:30:54;15.40;58.50
12329;DHT22;6230;52.390;10.256;2023-05-16T01:33:20;15.40;58.60
12329;DHT22;6230;52.390;10.256;2023-05-16T01:35:58;15.40;58.70
12329;DHT22;6230;52.390;10.256;2023-05-16T01:39:00;15.40;58.80
12329;DHT22;6230;52.390;10.256;2023-05-16T01:44:17;15.50;58.60
12329;DHT22;6230;52.390;10.256;2023-05-16T01:46:47;15.50;58.70
12329;DHT22;6230;52.390;10.256;2023-05-16T01:49:33;15.50;58.70
12329;DHT22;6230;52.390;10.256;2023-05-16T01:52:04;15.50;58.90
12329;DHT22;6230;52.390;10.256;2023-05-16T01:54:31;15.40;58.80
12329;DHT22;6230;52.390;10.256;2023-05-16T01:56:58;15.40;58.90
12329;DHT22;6230;52.390;10.256;2023-05-16T01:59:26;15.40;59.00
12329;DHT22;6230;52.390;10.256;2023-05-16T02:01:53;15.40;59.10
12329;DHT22;6230;52.390;10.256;2023-05-16T02:04:19;15.40;59.20
12329;DHT22;6230;52.390;10.256;2023-05-16T02:06:45;15.40;59.20
12329;DHT22;6230;52.390;10.256;2023-05-16T02:09:10;15.40;59.20
12329;DHT22;6230;52.390;10.256;2023-05-16T02:11:36;15.50;59.30
12329;DHT22;6230;52.390;10.256;2023-05-16T02:14:02;15.40;59.20
12329;DHT22;6230;52.390;10.256;2023-05-16T02:16:29;15.50;59.30
12329;DHT22;6230;52.390;10.256;2023-05-16T02:18:55;15.50;59.40
12329;DHT22;6230;52.390;10.256;2023-05-16T02:21:21;15.50;59.40
12329;DHT22;6230;52.390;10.256;2023-05-16T02:23:46;15.50;59.40
12329;DHT22;6230;52.390;10.256;2023-05-16T02:26:12;15.50;59.40
12329;DHT22;6230;52.390;10.256;2023-05-16T02:28:38;15.50;59.40
12329;DHT22;6230;52.390;10.256;2023-05-16T02:31:03;15.50;59.40
12329;DHT22;6230;52.390;10.256;2023-05-16T02:33:29;15.50;59.40
12329;DHT22;6230;52.390;10.256;2023-05-16T02:35:54;15.50;59.40
12329;DHT22;6230;52.390;10.256;2023-05-16T02:38:20;15.50;59.50
12329;DHT22;6230;52.390;10.256;2023-05-16T02:40:49;15.50;59.50
12329;DHT22;6230;52.390;10.256;2023-05-16T02:43:15;15.50;59.70
12329;DHT22;6230;52.390;10.256;2023-05-16T02:45:40;15.50;59.50
12329;DHT22;6230;52.390;10.256;2023-05-16T02:48:06;15.50;59.50
12329;DHT22;6230;52.390;10.256;2023-05-16T02:50:32;15.50;59.50
12329;DHT22;6230;52.390;10.256;2023-05-16T02:52:58;15.50;59.50
12329;DHT22;6230;52.390;10.256;2023-05-16T02:55:27;15.50;59.60
12329;DHT22;6230;52.390;10.256;2023-05-16T02:57:53;15.50;59.50
12329;DHT22;6230;52.390;10.256;2023-05-16T03:00:19;15.50;59.50
12329;DHT22;6230;52.390;10.256;2023-05-16T03:02:44;15.50;59.50
12329;DHT22;6230;52.390;10.256;2023-05-16T03:05:10;15.50;59.50
12329;DHT22;6230;52.390;10.256;2023-05-16T03:07:37;15.50;59.50
12329;DHT22;6230;52.390;10.256;2023-05-16T03:10:03;15.50;59.60
12329;DHT22;6230;52.390;10.256;2023-05-16T03:12:29;15.50;59.70
12329;DHT22;6230;52.390;10.256;2023-05-16T03:14:54;15.50;59.80
12329;DHT22;6230;52.390;10.256;2023-05-16T03:17:20;15.40;59.70
12329;DHT22;6230;52.390;10.256;2023-05-16T03:19:46;15.40;59.80
12329;DHT22;6230;52.390;10.256;2023-05-16T03:22:11;15.40;59.90
12329;DHT22;6230;52.390;10.256;2023-05-16T03:24:37;15.40;60.00
12329;DHT22;6230;52.390;10.256;2023-05-16T03:27:03;15.30;60.00
12329;DHT22;6230;52.390;10.256;2023-05-16T03:29:29;15.40;60.20
12329;DHT22;6230;52.390;10.256;2023-05-16T03:31:55;15.30;60.30
12329;DHT22;6230;52.390;10.256;2023-05-16T03:34:21;15.30;60.40
12329;DHT22;6230;52.390;10.256;2023-05-16T03:36:48;15.20;60.70
12329;DHT22;6230;52.390;10.256;2023-05-16T03:39:13;15.30;60.90
12329;DHT22;6230;52.390;10.256;2023-05-16T03:41:39;15.30;61.00
12329;DHT22;6230;52.390;10.256;2023-05-16T03:44:05;15.30;61.00
12329;DHT22;6230;52.390;10.256;2023-05-16T03:46:31;15.30;61.20
12329;DHT22;6230;52.390;10.256;2023-05-16T03:48:56;15.30;61.20
12329;DHT22;6230;52.390;10.256;2023-05-16T03:51:22;15.30;61.40
12329;DHT22;6230;52.390;10.256;2023-05-16T03:53:47;15.30;61.50
12329;DHT22;6230;52.390;10.256;2023-05-16T03:56:13;15.30;61.50
12329;DHT22;6230;52.390;10.256;2023-05-16T03:58:38;15.30;61.70
12329;DHT22;6230;52.390;10.256;2023-05-16T04:01:04;15.20;61.80
12329;DHT22;6230;52.390;10.256;2023-05-16T04:03:29;15.20;61.90
12329;DHT22;6230;52.390;10.256;2023-05-16T04:05:56;15.20;62.20
12329;DHT22;6230;52.390;10.256;2023-05-16T04:08:21;15.10;62.30
12329;DHT22;6230;52.390;10.256;2023-05-16T04:10:47;15.10;62.40
12329;DHT22;6230;52.390;10.256;2023-05-16T04:13:13;15.10;62.50
12329;DHT22;6230;52.390;10.256;2023-05-16T04:15:39;15.10;62.60
12329;DHT22;6230;52.390;10.256;2023-05-16T04:18:05;15.10;62.60
12329;DHT22;6230;52.390;10.256;2023-05-16T04:20:30;15.10;62.50
12329;DHT22;6230;52.390;10.256;2023-05-16T04:22:56;15.10;62.60
12329;DHT22;6230;52.390;10.256;2023-05-16T04:25:21;15.10;62.60
12329;DHT22;6230;52.390;10.256;2023-05-16T04:27:47;15.10;62.50
12329;DHT22;6230;52.390;10.256;2023-05-16T04:30:12;15.10;62.60
12329;DHT22;6230;52.390;10.256;2023-05-16T04:32:39;15.10;62.60
12329;DHT22;6230;52.390;10.256;2023-05-16T04:35:05;15.10;62.60
12329;DHT22;6230;52.390;10.256;2023-05-16T04:37:33;15.10;63.30
12329;DHT22;6230;52.390;10.256;2023-05-16T04:40:00;15.20;62.60
12329;DHT22;6230;52.390;10.256;2023-05-16T04:42:26;15.20;62.50
12329;DHT22;6230;52.390;10.256;2023-05-16T04:44:51;15.20;62.50
12329;DHT22;6230;52.390;10.256;2023-05-16T04:47:17;15.20;62.50
12329;DHT22;6230;52.390;10.256;2023-05-16T04:49:43;15.20;62.40
12329;DHT22;6230;52.390;10.256;2023-05-16T04:52:09;15.20;62.50
12329;DHT22;6230;52.390;10.256;2023-05-16T04:54:34;15.10;62.40
12329;DHT22;6230;52.390;10.256;2023-05-16T04:57:00;15.10;62.40
12329;DHT22;6230;52.390;10.256;2023-05-16T04:59:26;15.20;62.50
12329;DHT22;6230;52.390;10.256;2023-05-16T05:01:51;15.20;62.40
12329;DHT22;6230;52.390;10.256;2023-05-16T05:04:17;15.10;62.20
12329;DHT22;6230;52.390;10.256;2023-05-16T05:06:42;15.10;62.20
12329;DHT22;6230;52.390;10.256;2023-05-16T05:09:08;15.10;62.20
12329;DHT22;6230;52.390;10.256;2023-05-16T05:11:34;15.00;62.20
12329;DHT22;6230;52.390;10.256;2023-05-16T05:14:00;15.00;62.30
12329;DHT22;6230;52.390;10.256;2023-05-16T05:16:25;14.90;62.50
12329;DHT22;6230;52.390;10.256;2023-05-16T05:18:51;14.90;62.60
12329;DHT22;6230;52.390;10.256;2023-05-16T05:21:17;14.90;62.80
12329;DHT22;6230;52.390;10.256;2023-05-16T05:23:44;14.80;62.90
12329;DHT22;6230;52.390;10.256;2023-05-16T05:26:10;14.80;63.00
12329;DHT22;6230;52.390;10.256;2023-05-16T05:28:36;14.80;63.00
12329;DHT22;6230;52.390;10.256;2023-05-16T05:31:03;14.80;63.10
12329;DHT22;6230;52.390;10.256;2023-05-16T05:33:29;14.70;63.00
12329;DHT22;6230;52.390;10.256;2023-05-16T05:35:55;14.70;63.00
12329;DHT22;6230;52.390;10.256;2023-05-16T05:38:21;14.60;63.20
12329;DHT22;6230;52.390;10.256;2023-05-16T05:40:47;14.60;63.10
12329;DHT22;6230;52.390;10.256;2023-05-16T05:43:14;14.60;64.00
12329;DHT22;6230;52.390;10.256;2023-05-16T05:45:40;14.60;63.20
12329;DHT22;6230;52.390;10.256;2023-05-16T05:48:06;14.60;63.20
12329;DHT22;6230;52.390;10.256;2023-05-16T05:50:32;14.60;63.10
12329;DHT22;6230;52.390;10.256;2023-05-16T05:52:57;14.60;62.90
12329;DHT22;6230;52.390;10.256;2023-05-16T05:55:23;14.60;62.80
12329;DHT22;6230;52.390;10.256;2023-05-16T05:57:48;14.60;62.80
12329;DHT22;6230;52.390;10.256;2023-05-16T06:00:14;14.60;62.60
12329;DHT22;6230;52.390;10.256;2023-05-16T06:02:40;14.60;62.50
12329;DHT22;6230;52.390;10.256;2023-05-16T06:05:06;14.60;62.50
12329;DHT22;6230;52.390;10.256;2023-05-16T06:07:32;14.60;62.40
12329;DHT22;6230;52.390;10.256;2023-05-16T06:09:58;14.60;62.30
12329;DHT22;6230;52.390;10.256;2023-05-16T06:12:24;14.60;62.30
12329;DHT22;6230;52.390;10.256;2023-05-16T06:14:49;14.60;62.10
12329;DHT22;6230;52.390;10.256;2023-05-16T06:17:15;14.60;62.00
12329;DHT22;6230;52.390;10.256;2023-05-16T06:19:40;14.60;61.80
12329;DHT22;6230;52.390;10.256;2023-05-16T06:22:06;14.60;61.70
12329;DHT22;6230;52.390;10.256;2023-05-16T06:24:31;14.60;61.50
12329;DHT22;6230;52.390;10.256;2023-05-16T06:26:57;14.60;61.40
12329;DHT22;6230;52.390;10.256;2023-05-16T06:29:23;14.60;61.30
12329;DHT22;6230;52.390;10.256;2023-05-16T06:31:48;14.70;61.10
12329;DHT22;6230;52.390;10.256;2023-05-16T06:34:14;14.70;60.90
12329;DHT22;6230;52.390;10.256;2023-05-16T06:36:39;14.70;60.60
12329;DHT22;6230;52.390;10.256;2023-05-16T06:39:05;14.70;60.60
12329;DHT22;6230;52.390;10.256;2023-05-16T06:41:31;14.70;60.40
12329;DHT22;6230;52.390;10.256;2023-05-16T06:43:56;14.70;60.30
12329;DHT22;6230;52.390;10.256;2023-05-16T06:46:22;14.70;60.30
12329;DHT22;6230;52.390;10.256;2023-05-16T06:48:47;14.80;60.90
12329;DHT22;6230;52.390;10.256;2023-05-16T06:51:13;14.80;60.00
12329;DHT22;6230;52.390;10.256;2023-05-16T06:53:39;14.90;59.90
12329;DHT22;6230;52.390;10.256;2023-05-16T06:56:04;14.90;59.70
12329;DHT22;6230;52.390;10.256;2023-05-16T06:58:30;14.90;59.50
12329;DHT22;6230;52.390;10.256;2023-05-16T07:00:56;14.90;59.20
12329;DHT22;6230;52.390;10.256;2023-05-16T07:03:22;15.00;59.20
12329;DHT22;6230;52.390;10.256;2023-05-16T07:05:47;15.00;59.00
12329;DHT22;6230;52.390;10.256;2023-05-16T07:08:15;15.00;58.80
12329;DHT22;6230;52.390;10.256;2023-05-16T07:10:41;15.00;58.80
12329;DHT22;6230;52.390;10.256;2023-05-16T07:13:07;15.00;58.60
12329;DHT22;6230;52.390;10.256;2023-05-16T07:15:32;14.90;58.60
12329;DHT22;6230;52.390;10.256;2023-05-16T07:17:58;15.00;58.60
12329;DHT22;6230;52.390;10.256;2023-05-16T07:20:24;15.10;58.50
12329;DHT22;6230;52.390;10.256;2023-05-16T07:22:49;15.20;58.30
12329;DHT22;6230;52.390;10.256;2023-05-16T07:25:15;15.20;58.00
12329;DHT22;6230;52.390;10.256;2023-05-16T07:27:41;15.20;57.70
12329;DHT22;6230;52.390;10.256;2023-05-16T07:30:09;15.20;57.60
12329;DHT22;6230;52.390;10.256;2023-05-16T07:32:35;15.20;57.50
12329;DHT22;6230;52.390;10.256;2023-05-16T07:35:02;15.20;57.60
12329;DHT22;6230;52.390;10.256;2023-05-16T07:37:29;15.20;57.60
12329;DHT22;6230;52.390;10.256;2023-05-16T07:39:55;15.20;57.30
12329;DHT22;6230;52.390;10.256;2023-05-16T07:42:21;15.30;57.40
12329;DHT22;6230;52.390;10.256;2023-05-16T07:44:46;15.30;57.30
12329;DHT22;6230;52.390;10.256;2023-05-16T07:47:12;15.30;57.20
12329;DHT22;6230;52.390;10.256;2023-05-16T07:49:37;15.40;57.20
12329;DHT22;6230;52.390;10.256;2023-05-16T07:52:03;15.60;57.10
12329;DHT22;6230;52.390;10.256;2023-05-16T07:54:29;15.70;56.60
12329;DHT22;6230;52.390;10.256;2023-05-16T07:56:55;15.80;56.10
12329;DHT22;6230;52.390;10.256;2023-05-16T07:59:21;15.90;55.60
12329;DHT22;6230;52.390;10.256;2023-05-16T08:01:47;16.00;55.30
12329;DHT22;6230;52.390;10.256;2023-05-16T08:04:12;16.00;54.80
12329;DHT22;6230;52.390;10.256;2023-05-16T08:06:38;16.00;54.70
12329;DHT22;6230;52.390;10.256;2023-05-16T08:09:04;16.10;54.50
12329;DHT22;6230;52.390;10.256;2023-05-16T08:11:29;16.10;54.30
12329;DHT22;6230;52.390;10.256;2023-05-16T08:13:55;16.10;54.20
12329;DHT22;6230;52.390;10.256;2023-05-16T08:16:20;16.20;54.00
12329;DHT22;6230;52.390;10.256;2023-05-16T08:18:46;16.20;53.50
12329;DHT22;6230;52.390;10.256;2023-05-16T08:21:11;16.20;53.50
12329;DHT22;6230;52.390;10.256;2023-05-16T08:23:38;16.20;53.60
12329;DHT22;6230;52.390;10.256;2023-05-16T08:26:04;16.30;53.40
12329;DHT22;6230;52.390;10.256;2023-05-16T08:28:29;16.30;53.70
12329;DHT22;6230;52.390;10.256;2023-05-16T08:30:55;16.40;53.00
12329;DHT22;6230;52.390;10.256;2023-05-16T08:33:21;16.40;52.90
12329;DHT22;6230;52.390;10.256;2023-05-16T08:35:46;16.40;52.60
12329;DHT22;6230;52.390;10.256;2023-05-16T08:38:13;16.50;52.50
12329;DHT22;6230;52.390;10.256;2023-05-16T08:40:39;16.40;52.40
12329;DHT22;6230;52.390;10.256;2023-05-16T08:43:05;16.50;52.40
12329;DHT22;6230;52.390;10.256;2023-05-16T08:45:31;16.60;52.20
12329;DHT22;6230;52.390;10.256;2023-05-16T08:47:59;16.80;52.10
12329;DHT22;6230;52.390;10.256;2023-05-16T08:50:29;17.00;51.70
12329;DHT22;6230;52.390;10.256;2023-05-16T08:52:55;17.00;51.30
12329;DHT22;6230;52.390;10.256;2023-05-16T08:55:22;17.10;51.00
12329;DHT22;6230;52.390;10.256;2023-05-16T08:57:49;17.20;50.60
12329;DHT22;6230;52.390;10.256;2023-05-16T09:00:17;17.20;50.50
12329;DHT22;6230;52.390;10.256;2023-05-16T09:02:43;17.30;50.30
12329;DHT22;6230;52.390;10.256;2023-05-16T09:05:14;17.40;50.30
12329;DHT22;6230;52.390;10.256;2023-05-16T09:07:41;17.60;50.10
12329;DHT22;6230;52.390;10.256;2023-05-16T09:10:07;17.80;49.80
12329;DHT22;6230;52.390;10.256;2023-05-16T09:12:33;18.00;49.30
12329;DHT22;6230;52.390;10.256;2023-05-16T09:15:01;18.10;48.60
12329;DHT22;6230;52.390;10.256;2023-05-16T09:17:34;18.20;47.90
12329;DHT22;6230;52.390;10.256;2023-05-16T09:20:08;18.20;47.50
12329;DHT22;6230;52.390;10.256;2023-05-16T09:22:34;18.20;47.60
12329;DHT22;6230;52.390;10.256;2023-05-16T09:24:59;18.30;47.60
12329;DHT22;6230;52.390;10.256;2023-05-16T09:27:25;18.30;47.10
12329;DHT22;6230;52.390;10.256;2023-05-16T09:29:50;18.30;46.80
12329;DHT22;6230;52.390;10.256;2023-05-16T09:32:16;18.30;46.80
12329;DHT22;6230;52.390;10.256;2023-05-16T09:34:47;18.30;46.70
12329;DHT22;6230;52.390;10.256;2023-05-16T09:37:22;18.40;46.50
12329;DHT22;6230;52.390;10.256;2023-05-16T09:39:50;18.50;46.20
12329;DHT22;6230;52.390;10.256;2023-05-16T09:42:18;18.60;46.60
12329;DHT22;6230;52.390;10.256;2023-05-16T09:44:51;18.60;45.70
12329;DHT22;6230;52.390;10.256;2023-05-16T09:47:19;18.60;45.60
12329;DHT22;6230;52.390;10.256;2023-05-16T09:49:45;18.70;45.90
12329;DHT22;6230;52.390;10.256;2023-05-16T09:52:14;18.90;45.70
12329;DHT22;6230;52.390;10.256;2023-05-16T09:54:40;19.10;45.50
12329;DHT22;6230;52.390;10.256;2023-05-16T09:57:06;19.20;45.10
12329;DHT22;6230;52.390;10.256;2023-05-16T09:59:36;19.20;44.90
12329;DHT22;6230;52.390;10.256;2023-05-16T10:02:07;19.10;44.80
12329;DHT22;6230;52.390;10.256;2023-05-16T10:04:34;19.00;44.90
12329;DHT22;6230;52.390;10.256;2023-05-16T10:07:02;18.90;44.80
12329;DHT22;6230;52.390;10.256;2023-05-16T10:09:30;18.90;44.70
12329;DHT22;6230;52.390;10.256;2023-05-16T10:11:57;19.10;45.00
12329;DHT22;6230;52.390;10.256;2023-05-16T10:14:27;19.20;44.50
12329;DHT22;6230;52.390;10.256;2023-05-16T10:16:55;19.40;44.40
12329;DHT22;6230;52.390;10.256;2023-05-16T10:19:24;19.60;44.00
12329;DHT22;6230;52.390;10.256;2023-05-16T10:21:53;19.50;43.30
12329;DHT22;6230;52.390;10.256;2023-05-16T10:25:11;19.40;43.30
12329;DHT22;6230;52.390;10.256;2023-05-16T10:27:16;19.40;43.40
12329;DHT22;6230;52.390;10.256;2023-05-16T10:29:43;19.30;43.30
12329;DHT22;6230;52.390;10.256;2023-05-16T10:32:09;19.20;43.20
12329;DHT22;6230;52.390;10.256;2023-05-16T10:34:36;19.10;43.20
12329;DHT22;6230;52.390;10.256;2023-05-16T10:37:03;19.00;43.00
12329;DHT22;6230;52.390;10.256;2023-05-16T10:39:29;19.00;42.90
12329;DHT22;6230;52.390;10.256;2023-05-16T10:41:56;19.00;43.20
12329;DHT22;6230;52.390;10.256;2023-05-16T10:44:22;19.20;43.30
12329;DHT22;6230;52.390;10.256;2023-05-16T10:46:47;19.40;42.80
12329;DHT22;6230;52.390;10.256;2023-05-16T10:49:21;19.70;42.40
12329;DHT22;6230;52.390;10.256;2023-05-16T10:54:43;20.00;41.80
12329;DHT22;6230;52.390;10.256;2023-05-16T10:57:11;20.00;41.50
12329;DHT22;6230;52.390;10.256;2023-05-16T10:59:41;19.90;41.40
12329;DHT22;6230;52.390;10.256;2023-05-16T11:02:27;19.70;40.90
12329;DHT22;6230;52.390;10.256;2023-05-16T11:04:57;19.50;40.70
12329;DHT22;6230;52.390;10.256;2023-05-16T11:07:25;19.40;41.40
12329;DHT22;6230;52.390;10.256;2023-05-16T11:10:08;19.40;41.50
12329;DHT22;6230;52.390;10.256;2023-05-16T11:12:47;19.50;41.20
12329;DHT22;6230;52.390;10.256;2023-05-16T11:15:27;19.60;41.40
12329;DHT22;6230;52.390;10.256;2023-05-16T11:18:15;19.70;41.60
12329;DHT22;6230;52.390;10.256;2023-05-16T11:20:42;19.70;41.70
12329;DHT22;6230;52.390;10.256;2023-05-16T11:23:24;19.50;42.00
12329;DHT22;6230;52.390;10.256;2023-05-16T11:25:53;19.60;42.20
12329;DHT22;6230;52.390;10.256;2023-05-16T11:28:20;19.60;42.30
12329;DHT22;6230;52.390;10.256;2023-05-16T11:30:48;19.70;42.30
12329;DHT22;6230;52.390;10.256;2023-05-16T11:33:14;19.80;42.10
12329;DHT22;6230;52.390;10.256;2023-05-16T11:35:41;19.90;41.40
12329;DHT22;6230;52.390;10.256;2023-05-16T11:38:14;20.00;40.70
12329;DHT22;6230;52.390;10.256;2023-05-16T11:40:43;20.00;40.20
12329;DHT22;6230;52.390;10.256;2023-05-16T11:43:09;20.10;40.40
12329;DHT22;6230;52.390;10.256;2023-05-16T11:45:35;20.20;40.20
12329;DHT22;6230;52.390;10.256;2023-05-16T11:48:02;20.30;39.70
12329;DHT22;6230;52.390;10.256;2023-05-16T11:50:28;20.20;39.50
12329;DHT22;6230;52.390;10.256;2023-05-16T11:52:55;20.10;39.70
12329;DHT22;6230;52.390;10.256;2023-05-16T11:55:30;20.10;39.80
12329;DHT22;6230;52.390;10.256;2023-05-16T11:57:57;20.00;39.60
12329;DHT22;6230;52.390;10.256;2023-05-16T12:00:25;19.80;39.80
12329;DHT22;6230;52.390;10.256;2023-05-16T12:02:51;19.70;40.00
12329;DHT22;6230;52.390;10.256;2023-05-16T12:05:19;19.50;40.10
12329;DHT22;6230;52.390;10.256;2023-05-16T12:07:46;19.40;40.10
12329;DHT22;6230;52.390;10.256;2023-05-16T12:10:15;19.30;40.40
12329;DHT22;6230;52.390;10.256;2023-05-16T12:12:43;19.30;40.80
12329;DHT22;6230;52.390;10.256;2023-05-16T12:15:10;19.30;40.70
12329;DHT22;6230;52.390;10.256;2023-05-16T12:17:36;19.30;40.50
12329;DHT22;6230;52.390;10.256;2023-05-16T12:20:04;19.20;41.00
12329;DHT22;6230;52.390;10.256;2023-05-16T12:22:38;19.20;40.30
12329;DHT22;6230;52.390;10.256;2023-05-16T12:25:26;19.20;40.80
12329;DHT22;6230;52.390;10.256;2023-05-16T12:27:57;19.10;39.90
12329;DHT22;6230;52.390;10.256;2023-05-16T12:30:24;19.10;40.10
12329;DHT22;6230;52.390;10.256;2023-05-16T12:35:29;19.00;40.10
12329;DHT22;6230;52.390;10.256;2023-05-16T12:37:55;18.90;39.90
12329;DHT22;6230;52.390;10.256;2023-05-16T12:40:20;18.80;39.80
12329;DHT22;6230;52.390;10.256;2023-05-16T12:42:50;18.80;39.80
12329;DHT22;6230;52.390;10.256;2023-05-16T12:45:16;19.00;40.00
12329;DHT22;6230;52.390;10.256;2023-05-16T12:47:42;19.20;40.00
12329;DHT22;6230;52.390;10.256;2023-05-16T12:50:09;19.40;39.70
12329;DHT22;6230;52.390;10.256;2023-05-16T12:52:52;19.60;39.50
12329;DHT22;6230;52.390;10.256;2023-05-16T12:55:19;19.70;39.50
12329;DHT22;6230;52.390;10.256;2023-05-16T12:57:46;19.90;39.40
12329;DHT22;6230;52.390;10.256;2023-05-16T13:00:13;20.10;38.90
12329;DHT22;6230;52.390;10.256;2023-05-16T13:02:39;20.10;38.30
12329;DHT22;6230;52.390;10.256;2023-05-16T13:05:05;20.10;38.00
12329;DHT22;6230;52.390;10.256;2023-05-16T13:07:32;20.10;38.10
12329;DHT22;6230;52.390;10.256;2023-05-16T13:09:58;20.00;38.50
12329;DHT22;6230;52.390;10.256;2023-05-16T13:12:23;19.90;39.00
12329;DHT22;6230;52.390;10.256;2023-05-16T13:14:52;19.80;39.50
12329;DHT22;6230;52.390;10.256;2023-05-16T13:17:17;20.00;39.80
12329;DHT22;6230;52.390;10.256;2023-05-16T13:19:43;20.10;39.70
12329;DHT22;6230;52.390;10.256;2023-05-16T13:22:08;20.30;39.60
12329;DHT22;6230;52.390;10.256;2023-05-16T13:24:34;20.50;39.50
12329;DHT22;6230;52.390;10.256;2023-05-16T13:26:59;20.70;39.20
12329;DHT22;6230;52.390;10.256;2023-05-16T13:29:25;20.80;39.00
12329;DHT22;6230;52.390;10.256;2023-05-16T13:31:51;20.90;39.00
12329;DHT22;6230;52.390;10.256;2023-05-16T13:34:16;20.90;38.60
12329;DHT22;6230;52.390;10.256;2023-05-16T13:36:42;20.90;38.50
12329;DHT22;6230;52.390;10.256;2023-05-16T13:39:07;21.00;38.50
12329;DHT22;6230;52.390;10.256;2023-05-16T13:41:33;21.10;38.30
12329;DHT22;6230;52.390;10.256;2023-05-16T13:44:02;21.10;37.90
12329;DHT22;6230;52.390;10.256;2023-05-16T13:46:28;21.10;37.80
12329;DHT22;6230;52.390;10.256;2023-05-16T13:48:54;21.10;37.80
12329;DHT22;6230;52.390;10.256;2023-05-16T13:51:19;21.20;37.60
12329;DHT22;6230;52.390;10.256;2023-05-16T13:53:45;21.30;37.40
12329;DHT22;6230;52.390;10.256;2023-05-16T13:56:10;21.30;37.20
12329;DHT22;6230;52.390;10.256;2023-05-16T13:58:36;21.20;37.10
12329;DHT22;6230;52.390;10.256;2023-05-16T14:01:01;21.10;37.10
12329;DHT22;6230;52.390;10.256;2023-05-16T14:03:27;21.10;37.00
12329;DHT22;6230;52.390;10.256;2023-05-16T14:05:53;21.10;37.00
12329;DHT22;6230;52.390;10.256;2023-05-16T14:08:18;21.00;36.40
12329;DHT22;6230;52.390;10.256;2023-05-16T14:10:44;20.80;36.60
12329;DHT22;6230;52.390;10.256;2023-05-16T14:13:09;20.50;36.70
12329;DHT22;6230;52.390;10.256;2023-05-16T14:15:35;20.40;36.90
12329;DHT22;6230;52.390;10.256;2023-05-16T14:18:01;20.30;36.80
12329;DHT22;6230;52.390;10.256;2023-05-16T14:20:28;20.30;36.70
12329;DHT22;6230;52.390;10.256;2023-05-16T14:22:53;20.20;36.90
12329;DHT22;6230;52.390;10.256;2023-05-16T14:25:19;20.30;37.00
12329;DHT22;6230;52.390;10.256;2023-05-16T14:27:44;20.40;37.10
12329;DHT22;6230;52.390;10.256;2023-05-16T14:30:10;20.50;37.10
12329;DHT22;6230;52.390;10.256;2023-05-16T14:32:36;20.60;37.00
12329;DHT22;6230;52.390;10.256;2023-05-16T14:35:02;20.70;36.60
12329;DHT22;6230;52.390;10.256;2023-05-16T14:37:29;20.70;36.70
12329;DHT22;6230;52.390;10.256;2023-05-16T14:39:55;20.80;36.50
12329;DHT22;6230;52.390;10.256;2023-05-16T14:42:21;20.80;36.30
12329;DHT22;6230;52.390;10.256;2023-05-16T14:44:47;20.80;35.90
12329;DHT22;6230;52.390;10.256;2023-05-16T14:47:12;20.70;35.50
12329;DHT22;6230;52.390;10.256;2023-05-16T14:49:38;20.70;35.50
12329;DHT22;6230;52.390;10.256;2023-05-16T14:52:04;20.70;35.60
12329;DHT22;6230;52.390;10.256;2023-05-16T14:54:30;20.70;36.00
12329;DHT22;6230;52.390;10.256;2023-05-16T14:56:56;20.60;36.20
12329;DHT22;6230;52.390;10.256;2023-05-16T14:59:24;20.50;36.30
12329;DHT22;6230;52.390;10.256;2023-05-16T15:01:50;20.40;36.50
12329;DHT22;6230;52.390;10.256;2023-05-16T15:04:15;20.30;36.80
12329;DHT22;6230;52.390;10.256;2023-05-16T15:06:41;20.30;36.70
12329;DHT22;6230;52.390;10.256;2023-05-16T15:09:06;20.30;36.30
12329;DHT22;6230;52.390;10.256;2023-05-16T15:11:32;20.20;36.00
12329;DHT22;6230;52.390;10.256;2023-05-16T15:13:57;20.20;35.90
12329;DHT22;6230;52.390;10.256;2023-05-16T15:16:23;20.00;36.10
12329;DHT22;6230;52.390;10.256;2023-05-16T15:18:49;20.00;36.10
12329;DHT22;6230;52.390;10.256;2023-05-16T15:21:14;19.90;36.30
12329;DHT22;6230;52.390;10.256;2023-05-16T15:23:40;19.80;36.40
12329;DHT22;6230;52.390;10.256;2023-05-16T15:26:07;19.70;36.40
12329;DHT22;6230;52.390;10.256;2023-05-16T15:28:33;19.70;36.60
12329;DHT22;6230;52.390;10.256;2023-05-16T15:30:58;19.50;36.50
12329;DHT22;6230;52.390;10.256;2023-05-16T15:33:24;19.40;36.70
12329;DHT22;6230;52.390;10.256;2023-05-16T15:35:49;19.40;36.80
12329;DHT22;6230;52.390;10.256;2023-05-16T15:38:16;19.20;36.60
12329;DHT22;6230;52.390;10.256;2023-05-16T15:40:41;19.20;36.60
12329;DHT22;6230;52.390;10.256;2023-05-16T15:43:07;19.10;36.70